Time;durP1;ratioP1;P1;durP2;ratioP2;P2;SDS_P1;SDS_P2;PMS_P1;PMS_P2;Temp;Humidity;BMP_temperature;BMP_pressure;BME280_temperature;BME280_humidity;BME280_pressure;Samples;Min_cycle;Max_cycle;Signal;HPM_P1;HPM_P2
2022/01/21 00:01:48;;;;;;;14.07;4.18;;;;;;;5.81;59.77;103261.97;5053868;28;20037;-62
2022/01/21 00:04:17;;;;;;;11.98;2.83;;;;;;;5.81;59.83;103261.97;5053977;28;20040;-62
2022/01/21 00:06:44;;;;;;;12.68;3.20;;;;;;;5.81;60.19;103256.66;5053621;28;20068;-62
2022/01/21 00:09:10;;;;;;;13.43;3.33;;;;;;;5.82;59.92;103258.41;5053476;28;20048;-62
2022/01/21 00:11:39;;;;;;;13.45;3.63;;;;;;;5.84;60.14;103261.94;5052250;28;20040;-62
2022/01/21 00:14:06;;;;;;;14.75;3.65;;;;;;;5.86;60.24;103270.81;5054034;28;20052;-62
2022/01/21 00:16:34;;;;;;;14.07;3.03;;;;;;;5.88;60.55;103277.88;5053982;28;20112;-62
2022/01/21 00:19:11;;;;;;;15.82;3.20;;;;;;;5.92;60.39;103282.31;5053401;28;20041;-62
2022/01/21 00:30:17;;;;;;;13.30;3.05;;;;;;;6.08;60.74;103274.13;5053940;28;20075;-62
2022/01/21 00:32:45;;;;;;;9.00;3.05;;;;;;;6.10;60.78;103261.66;5053534;28;20068;-62
2022/01/21 00:35:13;;;;;;;5.60;2.30;;;;;;;6.11;60.66;103261.63;5053143;28;20147;-62
2022/01/21 00:37:40;;;;;;;10.40;3.00;;;;;;;6.14;60.67;103266.06;5051094;28;20072;-62
2022/01/21 00:40:10;;;;;;;16.40;3.17;;;;;;;6.16;60.83;103273.13;5053009;28;20099;-63
2022/01/21 00:45:10;;;;;;;9.95;2.45;;;;;;;6.22;60.72;103274.81;5051530;28;20077;-63
2022/01/21 00:47:37;;;;;;;12.93;2.67;;;;;;;6.22;60.73;103277.50;5051583;28;20127;-61
2022/01/21 00:50:05;;;;;;;10.90;2.60;;;;;;;6.21;60.61;103276.63;5052872;28;20053;-62
2022/01/21 00:52:31;;;;;;;15.00;3.25;;;;;;;6.22;60.56;103273.03;5051647;28;20041;-62
2022/01/21 00:54:58;;;;;;;7.43;2.88;;;;;;;6.21;60.56;103283.75;5052678;28;20045;-62
2022/01/21 00:57:25;;;;;;;9.70;2.75;;;;;;;6.19;60.43;103270.41;5052754;28;20526;-62
2022/01/21 00:59:51;;;;;;;13.70;3.30;;;;;;;6.19;60.56;103275.75;5052791;28;20045;-62
2022/01/21 01:02:18;;;;;;;15.73;2.95;;;;;;;6.16;60.40;103273.13;5051573;28;20051;-62
2022/01/21 01:04:45;;;;;;;12.63;3.70;;;;;;;6.15;60.29;103260.69;5052912;28;20056;-62
2022/01/21 01:07:11;;;;;;;10.88;2.78;;;;;;;6.13;60.23;103267.84;5053095;28;20045;-62
2022/01/21 01:09:38;;;;;;;12.48;3.83;;;;;;;6.11;60.19;103269.66;5052457;28;20398;-62
2022/01/21 01:12:30;;;;;;;16.90;3.28;;;;;;;6.09;60.33;103263.44;5051333;28;20094;-62
2022/01/21 01:20:31;;;;;;;10.65;3.72;;;;;;;5.98;60.18;103252.03;5051083;28;20041;-63
2022/01/21 01:23:08;;;;;;;15.02;2.90;;;;;;;5.93;60.05;103248.53;5052915;28;20131;-63
2022/01/21 01:28:21;;;;;;;15.35;3.50;;;;;;;5.84;60.18;103254.81;5050840;28;20407;-62
2022/01/21 01:30:48;;;;;;;13.25;4.28;;;;;;;5.80;60.22;103252.22;5051182;28;20135;-63
2022/01/21 01:33:23;;;;;;;12.75;4.47;;;;;;;5.77;60.12;103253.16;5052321;28;20537;-62
2022/01/21 01:35:50;;;;;;;20.00;4.03;;;;;;;5.75;60.27;103262.94;5052078;28;20120;-62
2022/01/21 01:51:28;;;;;;;17.70;4.20;;;;;;;5.74;60.37;103267.41;5032212;28;20038;-62
2022/01/21 01:54:03;;;;;;;16.25;3.55;;;;;;;5.75;60.35;103254.94;5050734;28;20053;-62
2022/01/21 01:56:34;;;;;;;10.10;3.83;;;;;;;5.74;60.37;103251.41;5050653;28;20445;-62
2022/01/21 01:59:01;;;;;;;12.52;4.75;;;;;;;5.76;60.30;103248.72;5050626;28;20044;-62
2022/01/21 02:01:28;;;;;;;13.68;3.70;;;;;;;5.76;60.31;103256.72;5052144;28;20487;-63
2022/01/21 02:03:57;;;;;;;12.65;3.80;;;;;;;5.75;60.23;103260.28;5052089;28;20037;-62
2022/01/21 02:06:24;;;;;;;12.70;3.80;;;;;;;5.74;60.36;103259.41;5050740;28;20139;-62
2022/01/21 02:08:51;;;;;;;17.52;3.97;;;;;;;5.75;60.27;103252.28;5050418;28;20055;-62
2022/01/21 02:11:18;;;;;;;12.55;3.90;;;;;;;5.76;60.16;103259.38;5052104;28;20041;-63
2022/01/21 02:14:15;;;;;;;15.88;3.42;;;;;;;5.72;60.13;103249.66;5052064;28;20067;-63
2022/01/21 02:22:13;;;;;;;14.07;4.03;;;;;;;5.66;60.13;103260.38;5052050;28;20449;-62
2022/01/21 02:24:59;;;;;;;12.70;3.53;;;;;;;5.61;60.23;103259.56;5051044;28;20079;-62
2022/01/21 02:27:27;;;;;;;13.63;3.33;;;;;;;5.57;60.30;103250.72;5031144;28;20074;-63
2022/01/21 02:30:00;;;;;;;12.38;3.33;;;;;;;5.55;60.15;103255.19;5064365;28;20096;-62
2022/01/21 02:32:29;;;;;;;11.90;3.72;;;;;;;5.53;60.14;103251.66;5030962;28;20143;-62
2022/01/21 02:35:00;;;;;;;10.00;3.67;;;;;;;5.53;60.18;103256.09;5032323;28;20450;-63
2022/01/21 02:37:26;;;;;;;10.15;3.67;;;;;;;5.52;60.15;103254.34;5030705;28;20047;-63
2022/01/21 02:39:53;;;;;;;11.55;3.35;;;;;;;5.51;60.22;103250.78;5030977;28;20499;-63
2022/01/21 02:42:19;;;;;;;10.57;3.33;;;;;;;5.49;60.22;103255.25;5036046;28;20071;-63
2022/01/21 02:44:50;;;;;;;18.25;4.90;;;;;;;5.48;60.10;103260.59;5051063;28;20387;-63
2022/01/21 02:47:17;;;;;;;13.68;3.47;;;;;;;5.48;60.35;103265.94;5050967;28;20067;-62
2022/01/21 02:49:50;;;;;;;9.95;3.53;;;;;;;5.46;60.29;103257.09;5050538;28;20033;-62
2022/01/21 02:52:19;;;;;;;18.55;3.70;;;;;;;5.47;60.22;103262.41;5051032;28;20071;-62
2022/01/21 02:54:47;;;;;;;12.05;2.95;;;;;;;5.48;60.38;103261.50;5050711;28;20060;-61
2022/01/21 02:57:14;;;;;;;13.27;3.78;;;;;;;5.49;60.40;103265.03;5050954;28;20453;-63
2022/01/21 02:59:40;;;;;;;9.77;3.95;;;;;;;5.48;60.35;103263.28;5031185;28;20453;-62
2022/01/21 03:02:07;;;;;;;11.32;3.45;;;;;;;5.48;60.27;103261.50;5034844;28;20099;-62
2022/01/21 03:04:51;;;;;;;11.95;3.08;;;;;;;5.48;60.37;103264.16;5036079;28;20044;-63
2022/01/21 03:07:17;;;;;;;14.80;3.58;;;;;;;5.48;60.31;103273.94;5035873;28;20057;-62
2022/01/21 03:09:44;;;;;;;13.73;3.58;;;;;;;5.49;60.38;103263.25;5052404;28;20045;-62
2022/01/21 03:12:11;;;;;;;12.00;3.38;;;;;;;5.50;60.48;103264.13;5054511;28;20051;-63
2022/01/21 03:14:41;;;;;;;13.07;2.92;;;;;;;5.48;60.48;103264.16;5055839;28;20449;-63
2022/01/21 03:17:08;;;;;;;9.45;2.80;;;;;;;5.49;60.42;103265.03;5054423;28;20156;-62
2022/01/21 03:19:35;;;;;;;12.93;3.10;;;;;;;5.49;60.45;103267.69;5054096;28;20129;-63
2022/01/21 03:22:02;;;;;;;7.40;2.40;;;;;;;5.47;60.32;103267.72;5054184;28;20033;-63
2022/01/21 03:24:33;;;;;;;6.35;2.58;;;;;;;5.45;60.42;103272.19;5054291;28;20087;-62
2022/01/21 03:26:59;;;;;;;11.18;3.38;;;;;;;5.43;60.43;103269.53;5054164;28;20061;-62
2022/01/21 03:29:26;;;;;;;12.80;3.10;;;;;;;5.42;60.41;103274.88;5052863;28;20131;-62
2022/01/21 03:31:53;;;;;;;13.43;3.15;;;;;;;5.43;60.35;103279.31;5052501;28;20048;-63
2022/01/21 03:34:20;;;;;;;7.63;2.45;;;;;;;5.42;60.26;103274.88;5048631;28;20395;-63
2022/01/21 03:36:47;;;;;;;8.63;3.20;;;;;;;5.42;60.29;103280.22;5035456;28;20535;-62
2022/01/21 03:39:14;;;;;;;7.93;2.72;;;;;;;5.42;60.30;103280.22;5033535;28;20091;-62
2022/01/21 03:41:40;;;;;;;12.07;3.05;;;;;;;5.40;60.41;103280.22;5033655;28;20049;-63
2022/01/21 03:44:09;;;;;;;11.43;2.47;;;;;;;5.40;60.22;103290.00;5052066;28;20403;-62
2022/01/21 03:46:35;;;;;;;13.77;3.13;;;;;;;5.38;60.43;103283.81;5052075;28;20045;-62
2022/01/21 03:49:04;;;;;;;8.68;2.45;;;;;;;5.37;60.18;103290.03;5052319;28;20056;-62
2022/01/21 03:51:32;;;;;;;11.80;3.20;;;;;;;5.35;60.28;103290.06;5052391;28;20048;-62
2022/01/21 03:54:00;;;;;;;10.48;4.13;;;;;;;5.37;60.11;103292.72;5052527;28;20403;-63
2022/01/21 03:56:30;;;;;;;10.30;2.53;;;;;;;5.34;60.13;103288.28;5052084;28;20037;-63
2022/01/21 03:58:58;;;;;;;16.55;2.88;;;;;;;5.34;60.09;103276.75;5053357;28;20041;-63
2022/01/21 04:01:25;;;;;;;16.23;3.45;;;;;;;5.33;60.09;103288.31;5053600;28;20507;-62
2022/01/21 04:03:57;;;;;;;10.98;2.50;;;;;;;5.31;60.09;103282.13;5053440;28;20453;-62
2022/01/21 04:06:24;;;;;;;8.38;2.80;;;;;;;5.28;60.24;103277.69;5053554;28;20455;-63
2022/01/21 04:08:51;;;;;;;10.18;2.63;;;;;;;5.26;60.13;103273.28;5054228;28;20124;-62
2022/01/21 04:11:18;;;;;;;7.15;2.10;;;;;;;5.24;60.08;103273.31;5086123;28;20037;-62
2022/01/21 04:13:50;;;;;;;9.38;3.13;;;;;;;5.23;60.00;103271.53;5053456;28;20086;-62
2022/01/21 04:16:18;;;;;;;9.50;2.83;;;;;;;5.22;60.19;103269.78;5053227;28;20045;-63
2022/01/21 04:18:46;;;;;;;7.15;2.67;;;;;;;5.19;60.19;103267.09;5052794;28;20056;-63
2022/01/21 04:21:15;;;;;;;10.07;2.70;;;;;;;5.17;60.08;103260.03;5036955;28;20448;-62
2022/01/21 04:23:46;;;;;;;10.88;2.63;;;;;;;5.15;60.24;103269.81;5053134;28;20459;-63
2022/01/21 04:26:23;;;;;;;11.45;2.53;;;;;;;5.14;60.09;103268.03;5052893;28;20047;-62
2022/01/21 04:28:59;;;;;;;15.32;2.40;;;;;;;5.14;60.14;103268.94;5052760;28;20529;-62
2022/01/21 04:31:33;;;;;;;7.90;3.20;;;;;;;5.14;60.18;103268.03;5052985;28;20045;-63
2022/01/21 04:34:05;;;;;;;7.93;2.40;;;;;;;5.14;60.35;103268.03;5052983;28;20099;-63
2022/01/21 04:36:31;;;;;;;21.35;2.97;;;;;;;5.14;60.46;103268.94;5052671;28;20045;-63
2022/01/21 04:39:00;;;;;;;9.55;2.90;;;;;;;5.17;60.24;103273.34;5052512;28;20037;-63
2022/01/21 04:47:16;;;;;;;8.63;2.13;;;;;;;5.17;60.12;103270.69;5052473;28;20041;-62
2022/01/21 04:47:19;;;;;;;12.02;2.78;;;;;;;5.14;60.24;103257.38;5052345;28;20360;-62
2022/01/21 04:49:50;;;;;;;8.20;2.50;;;;;;;5.11;60.19;103255.63;5052143;28;20044;-62
2022/01/21 04:52:19;;;;;;;11.77;2.80;;;;;;;5.08;60.12;103258.34;5052379;28;20045;-62
2022/01/21 04:54:54;;;;;;;7.65;2.38;;;;;;;5.05;60.09;103255.69;5052184;28;20048;-62
2022/01/21 04:57:23;;;;;;;8.55;2.50;;;;;;;5.02;60.04;103248.63;5052156;28;20033;-63
2022/01/21 04:59:50;;;;;;;10.25;2.47;;;;;;;4.99;60.22;103251.31;5052204;28;20048;-62
2022/01/21 05:02:18;;;;;;;10.85;2.92;;;;;;;4.97;60.21;103255.78;5052060;28;20576;-64
2022/01/21 05:04:48;;;;;;;10.18;2.85;;;;;;;4.95;60.20;103256.69;5053914;28;20044;-62
2022/01/21 05:07:20;;;;;;;9.73;2.53;;;;;;;4.93;60.14;103261.16;5035606;28;20036;-62
2022/01/21 05:09:47;;;;;;;9.00;2.83;;;;;;;4.91;60.35;103268.25;5053392;28;20044;-63
2022/01/21 05:12:19;;;;;;;9.60;3.22;;;;;;;4.90;60.53;103271.81;5052259;28;20112;-62
2022/01/21 05:15:15;;;;;;;8.38;2.60;;;;;;;4.89;60.53;103264.72;5052177;28;20063;-62
2022/01/21 05:17:48;;;;;;;10.98;2.90;;;;;;;4.89;60.44;103262.94;5051483;28;20041;-62
2022/01/21 05:20:20;;;;;;;9.48;2.83;;;;;;;4.91;60.48;103269.16;5051792;28;20094;-62
2022/01/21 05:23:12;;;;;;;13.43;3.13;;;;;;;4.92;60.51;103259.38;5052646;28;20083;-63
2022/01/21 05:25:39;;;;;;;12.30;2.90;;;;;;;4.93;60.58;103267.34;5051660;28;20079;-63
2022/01/21 05:28:05;;;;;;;10.48;2.50;;;;;;;4.94;60.56;103273.56;5053019;28;20098;-63
2022/01/21 05:30:43;;;;;;;7.05;2.30;;;;;;;4.94;60.66;103274.44;5036745;28;20044;-62
2022/01/21 05:33:17;;;;;;;8.20;2.30;;;;;;;4.95;60.62;103272.66;5051857;28;20052;-63
2022/01/21 05:36:02;;;;;;;8.25;2.40;;;;;;;4.96;60.55;103271.78;5052783;28;20052;-63
2022/01/21 05:38:48;;;;;;;6.07;1.95;;;;;;;4.96;60.75;103272.66;5051416;28;20041;-63
2022/01/21 05:41:29;;;;;;;8.35;2.22;;;;;;;4.98;60.69;103268.19;5051775;28;20041;-62
2022/01/21 05:46:23;;;;;;;5.95;2.30;;;;;;;4.97;60.60;103279.75;5053106;28;20047;-62
2022/01/21 05:47:27;;;;;;;8.25;3.03;;;;;;;5.00;60.53;103265.50;5052266;28;20051;-63
2022/01/21 05:50:14;;;;;;;7.70;1.83;;;;;;;5.00;60.58;103270.84;5052587;28;20060;-63
2022/01/21 05:53:12;;;;;;;5.68;1.90;;;;;;;4.99;60.59;103269.06;5052459;28;20111;-63
2022/01/21 05:56:01;;;;;;;6.97;2.35;;;;;;;4.97;60.65;103273.53;5052439;28;20060;-62
2022/01/21 05:58:41;;;;;;;7.10;2.22;;;;;;;4.92;60.61;103272.69;5051029;28;20049;-62
2022/01/21 06:01:08;;;;;;;8.48;2.17;;;;;;;4.90;60.63;103280.69;5051159;28;20128;-63
2022/01/21 06:03:39;;;;;;;8.90;2.88;;;;;;;4.89;60.74;103284.25;5052897;28;20399;-63
2022/01/21 06:06:06;;;;;;;9.52;2.65;;;;;;;4.89;60.66;103280.72;5052934;28;20497;-63
2022/01/21 06:08:32;;;;;;;10.70;2.20;;;;;;;4.89;60.85;103286.03;5051065;28;20104;-63
2022/01/21 06:10:59;;;;;;;7.80;2.35;;;;;;;4.88;60.69;103281.59;5051190;28;20041;-63
2022/01/21 06:13:26;;;;;;;13.27;2.58;;;;;;;4.90;60.81;103285.13;5052763;28;20041;-62
2022/01/21 06:15:54;;;;;;;10.85;2.67;;;;;;;4.91;60.85;103294.88;5052465;28;20095;-62
2022/01/21 06:18:21;;;;;;;5.47;2.35;;;;;;;4.92;60.96;103296.66;5052587;28;20041;-63
2022/01/21 06:20:48;;;;;;;7.75;2.22;;;;;;;4.94;61.05;103301.06;5052811;28;20045;-62
2022/01/21 06:23:19;;;;;;;8.95;2.35;;;;;;;4.94;60.94;103295.75;5052634;28;20045;-63
2022/01/21 06:25:46;;;;;;;6.40;2.30;;;;;;;4.95;61.00;103297.50;5051773;28;20051;-63
2022/01/21 06:28:13;;;;;;;10.13;2.33;;;;;;;4.97;61.08;103301.03;5050757;28;20044;-63
2022/01/21 06:30:40;;;;;;;8.25;2.70;;;;;;;4.97;61.05;103303.72;5032145;28;20049;-62
2022/01/21 06:33:10;;;;;;;8.25;2.40;;;;;;;5.00;60.99;103308.13;5031079;28;20470;-62
2022/01/21 06:35:36;;;;;;;7.07;2.85;;;;;;;5.00;61.18;103314.34;5034311;28;20091;-62
2022/01/21 06:38:03;;;;;;;6.18;2.40;;;;;;;5.00;61.10;103313.44;5042172;28;20025;-62
2022/01/21 06:40:29;;;;;;;3.70;2.17;;;;;;;5.00;61.07;103319.66;5056279;28;20549;-62
2022/01/21 06:43:03;;;;;;;7.38;2.50;;;;;;;5.02;61.13;103327.63;5056108;28;20041;-62
2022/01/21 06:45:30;;;;;;;5.38;2.15;;;;;;;5.02;60.91;103339.19;5052562;28;20064;-63
2022/01/21 06:48:02;;;;;;;6.43;2.30;;;;;;;5.03;61.04;103335.63;5047121;28;20075;-62
2022/01/21 06:50:30;;;;;;;5.13;2.17;;;;;;;5.02;61.02;103339.19;5045769;28;20077;-63
2022/01/21 06:53:01;;;;;;;7.53;2.33;;;;;;;5.02;61.00;103335.63;5034902;28;20049;-63
2022/01/21 06:55:27;;;;;;;6.35;2.00;;;;;;;5.00;61.03;103338.31;5034193;28;20433;-64
2022/01/21 06:57:54;;;;;;;11.65;2.17;;;;;;;5.00;61.06;103337.41;5056039;28;20186;-63
2022/01/21 07:00:21;;;;;;;6.70;2.40;;;;;;;5.00;61.20;103342.75;5055890;28;20045;-62
2022/01/21 07:05:55;;;;;;;7.25;2.38;;;;;;;5.00;61.05;103345.41;5055893;28;20494;-62
2022/01/21 07:08:23;;;;;;;15.45;2.70;;;;;;;5.00;61.00;103338.31;5044265;28;20490;-63
2022/01/21 07:10:49;;;;;;;7.75;2.65;;;;;;;4.98;61.04;103337.44;5055341;28;20076;-62
2022/01/21 07:13:17;;;;;;;5.70;2.38;;;;;;;4.96;61.18;103336.56;5045712;28;20047;-63
2022/01/21 07:15:44;;;;;;;9.73;2.80;;;;;;;4.96;61.01;103341.88;5046224;28;20119;-62
2022/01/21 07:18:11;;;;;;;9.35;3.05;;;;;;;4.96;61.25;103349.00;5049191;28;20045;-63
2022/01/21 07:20:38;;;;;;;8.10;2.33;;;;;;;4.96;61.09;103347.22;5053862;28;20037;-62
2022/01/21 07:23:07;;;;;;;11.05;2.83;;;;;;;4.96;61.21;103354.31;5053808;28;20041;-62
2022/01/21 07:25:33;;;;;;;10.45;2.67;;;;;;;4.97;61.02;103356.97;5052845;28;20041;-62
2022/01/21 07:28:00;;;;;;;8.43;2.95;;;;;;;4.97;61.13;103364.06;5044557;28;20067;-62
2022/01/21 07:30:26;;;;;;;8.75;2.97;;;;;;;4.95;61.28;103357.88;5039104;28;20033;-63
2022/01/21 07:33:02;;;;;;;9.32;2.90;;;;;;;4.96;61.35;103359.66;5050803;28;20056;-62
2022/01/21 07:35:29;;;;;;;9.80;3.13;;;;;;;4.98;61.25;103368.50;5044386;28;20156;-61
2022/01/21 07:38:12;;;;;;;10.38;2.97;;;;;;;5.01;61.44;103363.16;5047545;28;20041;-64
2022/01/21 07:40:38;;;;;;;13.32;3.30;;;;;;;5.02;61.48;103363.16;5050530;28;20128;-63
2022/01/21 07:43:09;;;;;;;10.18;3.25;;;;;;;5.05;61.59;103367.56;5049694;28;20060;-64
2022/01/21 07:45:35;;;;;;;7.45;3.10;;;;;;;5.08;61.36;103354.22;5052956;28;20325;-63
2022/01/21 07:48:03;;;;;;;11.55;3.25;;;;;;;5.10;61.57;103360.41;5052677;28;20124;-63
2022/01/21 07:50:32;;;;;;;6.95;2.33;;;;;;;5.14;61.56;103355.94;5053338;28;20441;-63
2022/01/21 07:53:03;;;;;;;10.40;2.80;;;;;;;5.16;61.66;103360.38;5053874;28;20033;-63
2022/01/21 07:55:30;;;;;;;11.25;3.15;;;;;;;5.18;61.74;103355.03;5053506;28;20075;-63
2022/01/21 07:57:57;;;;;;;8.63;3.17;;;;;;;5.19;61.72;103349.69;5053267;28;20060;-63
2022/01/21 08:00:24;;;;;;;8.55;3.13;;;;;;;5.22;61.73;103354.13;5053411;28;20033;-63
2022/01/21 08:05:23;;;;;;;6.25;3.47;;;;;;;5.26;61.79;103340.78;5053270;28;20392;-64
2022/01/21 08:07:49;;;;;;;12.13;3.40;;;;;;;5.30;61.83;103336.31;5053238;28;20045;-63
2022/01/21 08:10:16;;;;;;;11.75;3.72;;;;;;;5.34;61.88;103340.69;5053041;28;20045;-64
2022/01/21 08:12:42;;;;;;;6.35;3.20;;;;;;;5.40;62.00;103332.66;5053332;28;20041;-63
2022/01/21 08:15:09;;;;;;;8.70;3.38;;;;;;;5.49;61.95;103332.56;5053182;28;20053;-63
2022/01/21 08:17:36;;;;;;;7.50;3.28;;;;;;;5.59;62.09;103344.88;5053032;28;20041;-63
2022/01/21 08:20:03;;;;;;;7.85;4.13;;;;;;;5.68;62.09;103333.25;5051713;28;20124;-64
2022/01/21 08:22:29;;;;;;;9.10;4.45;;;;;;;5.77;62.19;103341.13;5052814;28;20151;-64
2022/01/21 08:25:00;;;;;;;12.32;4.38;;;;;;;5.86;62.18;103340.16;5053012;28;20033;-63
2022/01/21 08:27:27;;;;;;;10.27;3.45;;;;;;;5.93;62.07;103341.88;5052729;28;20052;-64
2022/01/21 08:29:53;;;;;;;10.15;3.97;;;;;;;5.99;62.03;103345.38;5052972;28;20048;-64
2022/01/21 08:32:20;;;;;;;13.65;4.30;;;;;;;6.05;62.07;103358.63;5052717;28;20045;-64
2022/01/21 08:34:49;;;;;;;12.68;3.50;;;;;;;6.11;62.25;103354.13;5053225;28;20049;-64
2022/01/21 08:37:17;;;;;;;12.82;3.70;;;;;;;6.16;62.06;103360.28;5052717;28;20456;-63
2022/01/21 08:39:43;;;;;;;8.45;3.00;;;;;;;6.21;62.08;103364.66;5052636;28;20307;-64
2022/01/21 08:42:10;;;;;;;10.45;3.70;;;;;;;6.25;62.03;103361.06;5052313;28;20560;-63
2022/01/21 08:45:03;;;;;;;8.95;3.28;;;;;;;6.28;61.99;103353.00;5052670;28;20040;-64
2022/01/21 08:47:29;;;;;;;12.48;3.30;;;;;;;6.33;61.99;103351.16;5032549;28;20402;-64
2022/01/21 08:50:00;;;;;;;9.05;3.85;;;;;;;6.38;62.06;103361.78;5032629;28;20067;-64
2022/01/21 08:52:29;;;;;;;9.85;3.20;;;;;;;6.43;62.01;103362.59;5032970;28;20470;-63
2022/01/21 08:54:55;;;;;;;8.90;3.40;;;;;;;6.49;62.02;103358.97;5032388;28;20533;-64
2022/01/21 08:57:22;;;;;;;9.27;3.00;;;;;;;6.53;62.10;103358.00;5031820;28;20121;-64
2022/01/21 08:59:49;;;;;;;9.73;2.83;;;;;;;6.58;61.90;103342.81;5032022;28;20049;-63
2022/01/21 09:02:18;;;;;;;11.43;3.55;;;;;;;6.62;61.93;103331.19;5032303;28;20038;-64
2022/01/21 09:04:51;;;;;;;8.70;3.30;;;;;;;6.68;62.17;103325.75;5031260;28;20403;-63
2022/01/21 09:07:18;;;;;;;11.68;3.63;;;;;;;6.74;61.86;103331.03;5063479;28;20057;-64
2022/01/21 09:09:45;;;;;;;9.50;3.00;;;;;;;6.77;61.87;103333.66;5047356;28;20037;-63
2022/01/21 09:12:11;;;;;;;5.18;2.83;;;;;;;6.80;61.85;103333.59;5030780;28;20495;-63
2022/01/21 09:14:41;;;;;;;8.45;3.10;;;;;;;6.86;61.84;103330.84;5051521;28;20510;-64
2022/01/21 09:17:08;;;;;;;5.88;2.83;;;;;;;6.91;61.73;103341.44;5050493;28;20078;-63
2022/01/21 09:19:34;;;;;;;10.40;3.05;;;;;;;6.99;61.97;103339.53;5050855;28;20475;-63
2022/01/21 09:22:02;;;;;;;8.00;2.97;;;;;;;7.09;61.93;103345.59;5051253;28;20041;-63
2022/01/21 09:24:32;;;;;;;8.63;3.15;;;;;;;7.21;62.11;103350.72;5050442;28;20139;-63
2022/01/21 09:27:01;;;;;;;11.75;3.08;;;;;;;7.30;62.01;103348.78;5083731;28;20068;-67
2022/01/21 09:29:27;;;;;;;7.10;3.08;;;;;;;7.43;62.07;103349.47;5050959;28;20033;-63
2022/01/21 09:31:54;;;;;;;8.50;3.08;;;;;;;7.55;62.11;103351.06;5050157;28;20047;-63
2022/01/21 09:34:47;;;;;;;8.23;3.35;;;;;;;7.68;62.11;103362.41;5050858;28;20501;-63
2022/01/21 09:37:15;;;;;;;9.77;3.17;;;;;;;7.82;62.00;103355.00;5052129;28;20055;-64
2022/01/21 09:39:43;;;;;;;18.45;5.13;;;;;;;7.92;61.98;103360.13;5052184;28;20579;-63
2022/01/21 09:42:13;;;;;;;10.93;3.22;;;;;;;8.00;61.77;103353.75;5052454;28;20037;-63
2022/01/21 09:44:45;;;;;;;7.65;2.55;;;;;;;8.04;61.68;103356.31;5052549;28;20075;-63
2022/01/21 09:47:15;;;;;;;6.07;2.55;;;;;;;8.08;61.34;103347.31;5052325;28;20060;-63
2022/01/21 09:49:43;;;;;;;10.68;3.28;;;;;;;8.14;61.42;103349.84;5051631;28;20069;-64
2022/01/21 09:52:13;;;;;;;10.35;3.17;;;;;;;8.20;61.26;103351.56;5051303;28;20478;-63
2022/01/21 09:54:47;;;;;;;8.68;2.90;;;;;;;8.24;61.27;103361.28;5051455;28;20048;-63
2022/01/21 09:57:18;;;;;;;7.05;2.65;;;;;;;8.27;61.11;103364.78;5050830;28;20036;-64
2022/01/21 09:59:46;;;;;;;5.03;2.90;;;;;;;8.32;61.04;103370.03;5050985;28;20453;-63
2022/01/21 10:02:16;;;;;;;10.75;3.30;;;;;;;8.38;60.96;103383.31;5050271;28;20080;-63
2022/01/21 10:04:46;;;;;;;7.00;3.00;;;;;;;8.45;61.06;103384.06;5051303;28;20060;-63
2022/01/21 10:07:19;;;;;;;8.98;2.90;;;;;;;8.53;61.17;103387.47;5051016;28;20141;-63
2022/01/21 10:09:47;;;;;;;8.25;2.97;;;;;;;8.64;61.16;103389.91;5050200;28;20051;-64
2022/01/21 10:12:15;;;;;;;9.80;2.60;;;;;;;8.73;61.12;103390.56;5051088;28;20406;-63
2022/01/21 10:14:42;;;;;;;13.40;3.83;;;;;;;8.82;61.02;103386.81;5050918;28;20081;-64
2022/01/21 10:17:12;;;;;;;5.03;2.55;;;;;;;8.88;61.06;103390.22;5050557;28;20395;-64
2022/01/21 10:19:39;;;;;;;8.52;3.00;;;;;;;8.95;60.83;103395.47;5050707;28;20045;-63
2022/01/21 10:22:12;;;;;;;11.20;3.00;;;;;;;8.99;60.68;103399.84;5049191;28;20398;-64
2022/01/21 10:25:00;;;;;;;8.38;3.15;;;;;;;9.04;60.66;103395.25;5050943;28;20140;-61
2022/01/21 10:27:33;;;;;;;28.35;4.68;;;;;;;9.12;60.75;103395.94;5049714;28;20486;-63
2022/01/21 10:30:00;;;;;;;11.90;3.20;;;;;;;9.19;60.76;103393.06;5050747;28;20125;-64
2022/01/21 10:32:39;;;;;;;11.63;3.28;;;;;;;9.28;60.54;103397.31;5049224;28;20453;-64
2022/01/21 10:35:32;;;;;;;12.52;3.65;;;;;;;9.38;60.72;103396.19;5049618;28;20104;-63
2022/01/21 10:38:24;;;;;;;8.95;2.78;;;;;;;9.48;60.80;103396.81;5050457;28;20565;-64
2022/01/21 10:40:51;;;;;;;10.38;3.50;;;;;;;9.59;60.51;103396.53;5050258;28;20063;-63
2022/01/21 10:43:22;;;;;;;14.30;2.88;;;;;;;9.65;60.59;103394.56;5050520;28;20044;-64
2022/01/21 10:45:51;;;;;;;9.98;3.17;;;;;;;9.72;60.43;103395.31;5051969;28;20086;-64
2022/01/21 10:48:18;;;;;;;10.57;2.92;;;;;;;9.78;60.37;103381.72;5050532;28;20486;-63
2022/01/21 10:50:45;;;;;;;9.50;3.50;;;;;;;9.81;60.12;103377.16;5052057;28;20057;-64
2022/01/21 10:53:29;;;;;;;9.23;2.67;;;;;;;9.84;60.04;103382.44;5052238;28;20063;-64
2022/01/21 10:56:08;;;;;;;14.50;3.30;;;;;;;9.89;59.96;103376.94;5051879;28;20045;-63
2022/01/21 10:58:42;;;;;;;13.40;3.85;;;;;;;9.91;60.14;103372.41;5051828;28;20043;-63
2022/01/21 11:01:16;;;;;;;6.37;2.37;;;;;;;9.93;60.08;103367.88;5051912;28;20045;-63
2022/01/21 11:04:10;;;;;;;15.30;3.83;;;;;;;9.96;59.90;103366.91;5051952;28;20310;-64
2022/01/21 11:06:57;;;;;;;12.25;3.20;;;;;;;10.00;60.05;103371.28;5032069;28;20069;-63
2022/01/21 11:09:28;;;;;;;10.90;3.58;;;;;;;10.01;59.73;103352.44;5031881;28;20129;-65
2022/01/21 11:12:10;;;;;;;15.35;2.97;;;;;;;10.03;59.87;103350.59;5031879;28;20041;-63
2022/01/21 11:14:58;;;;;;;15.45;3.22;;;;;;;10.07;59.95;103344.22;5030904;28;20040;-63
2022/01/21 11:17:25;;;;;;;13.48;3.20;;;;;;;10.11;59.81;103345.88;5031410;28;20057;-64
2022/01/21 11:20:04;;;;;;;10.95;3.03;;;;;;;10.12;59.62;103352.13;5031524;28;20042;-63
2022/01/21 11:22:31;;;;;;;12.02;7.55;;;;;;;10.11;59.86;103340.50;5036274;28;20069;-64
2022/01/21 11:25:00;;;;;;;7.25;3.42;;;;;;;10.13;59.79;103343.16;5055039;28;20052;-65
2022/01/21 11:27:27;;;;;;;6.82;2.88;;;;;;;10.15;59.95;103338.63;5055078;28;20095;-64
2022/01/21 11:29:54;;;;;;;9.02;2.42;;;;;;;10.21;59.96;103333.09;5053662;28;20045;-64
2022/01/21 11:32:21;;;;;;;7.72;2.83;;;;;;;10.28;59.87;103340.03;5053407;28;20037;-64
2022/01/21 11:34:53;;;;;;;8.63;2.88;;;;;;;10.32;59.69;103340.81;5053558;28;20049;-63
2022/01/21 11:37:23;;;;;;;8.52;2.60;;;;;;;10.36;59.98;103340.69;5054417;28;20116;-64
2022/01/21 11:39:50;;;;;;;10.40;2.55;;;;;;;10.42;59.73;103342.34;5053072;28;20055;-64
2022/01/21 11:42:18;;;;;;;5.10;2.10;;;;;;;10.43;59.83;103339.59;5054518;28;20037;-64
2022/01/21 11:44:52;;;;;;;8.27;2.10;;;;;;;10.44;59.65;103341.38;5053258;28;20384;-64
2022/01/21 11:47:37;;;;;;;13.60;2.85;;;;;;;10.47;59.83;103337.69;5054408;28;20080;-64
2022/01/21 11:50:05;;;;;;;7.70;1.90;;;;;;;10.52;59.67;103330.38;5054599;28;20465;-64
2022/01/21 11:52:43;;;;;;;8.52;1.85;;;;;;;10.56;59.51;103329.34;5053159;28;20490;-65
2022/01/21 11:55:33;;;;;;;9.93;2.53;;;;;;;10.60;59.78;103333.69;5054570;28;20458;-64
2022/01/21 11:58:12;;;;;;;6.35;2.38;;;;;;;10.65;59.78;103328.19;5053997;28;20561;-63
2022/01/21 12:00:40;;;;;;;11.95;2.92;;;;;;;10.69;59.96;103333.41;5054388;28;20033;-64
2022/01/21 12:03:10;;;;;;;6.55;2.20;;;;;;;10.70;59.93;103320.84;5054275;28;20128;-64
2022/01/21 12:05:37;;;;;;;15.43;2.60;;;;;;;10.71;59.83;103312.75;5052083;28;20040;-64
2022/01/21 12:08:05;;;;;;;9.95;2.28;;;;;;;10.72;59.67;103306.44;5052367;28;20045;-64
2022/01/21 12:10:42;;;;;;;8.55;2.10;;;;;;;10.76;59.76;103307.22;5035980;28;20156;-64
2022/01/21 12:13:18;;;;;;;8.52;2.72;;;;;;;10.78;59.65;103305.34;5039900;28;20041;-64
2022/01/21 12:16:20;;;;;;;11.85;2.03;;;;;;;10.78;59.88;103295.47;5051940;28;20047;-63
2022/01/21 12:21:25;;;;;;;13.48;3.25;;;;;;;10.79;59.68;103308.00;5054013;28;20044;-64
2022/01/21 12:23:59;;;;;;;10.80;2.67;;;;;;;10.80;59.64;103303.50;5053722;28;20043;-64
2022/01/21 12:26:27;;;;;;;12.50;2.75;;;;;;;10.83;59.87;103298.91;5052642;28;20083;-64
2022/01/21 12:28:54;;;;;;;9.82;3.20;;;;;;;10.88;59.88;103303.25;5053659;28;20383;-64
2022/01/21 12:31:22;;;;;;;10.32;2.72;;;;;;;10.89;59.72;103305.88;5052494;28;20435;-64
2022/01/21 12:34:15;;;;;;;15.63;4.63;;;;;;;10.90;59.92;103313.00;5053386;28;20524;-64
2022/01/21 12:37:05;;;;;;;15.20;3.20;;;;;;;10.92;59.69;103307.59;5053592;28;20110;-64